Pays
Station

 

Conditions  météo  pour  Erzincan  -  Turquie    Turquie

  
16 °C
    
 
 

METAR pour Erzincan :

LTCD 200050Z 06005KT 360V100 9999 TS FEW030CB SCT040 BKN090 16/13 Q1015 RETSRA TEMPO -TSRA

 

Voici le bulletin pour Erzincan - Turquie.
 
Le bulletin a été fait il y a une heure et 10 minutes, à 00:50 UTC .
Le vent soufflait à la vitesse de 2.6 mètres par seconde de Est/Nord-est (060°), variant entre Nord (360°) et Est (100°).
 
La température était de 16 °C, avec un point de rosée à 13 °C.
La pression atmosphérique était de 1015 hPa.
L'humidité relative était de 82.4%.
 
Il y avait 1 à 2/8ème cumulonimbus de nébulosité à une hauteur de 914 mètres, 3 à 4/8ème de nébulosité à une hauteur de 1219 mètres et 5 à 7/8ème de nébulosité à une hauteur de 2743 mètres.
 
La visibilité globale était de supérieure à 10 kilomètres.
 
Actuellement orage.

 
 
 

Pays :   A   B   C   D   E   F   G   H   I   J   K   L   M   N   O   P   Q   R   S   T   U   V   W   Y   Z

 

Partenaires :  Info Météo avec Met'info
Météo Marine avec MeteoMarine.net
Infos Site  |  Infos Légales  |  Crédits  |  Confidentialité
Contactez-nous  |  Ajouter aux favoris
© 2013-2018 METAR - Tous droits réservés